| Date | Time | Temp. (oF) | Dew Point (oF) | Rel. Hum. (%) | Press. (in.) | Wind Dir. | Wind Speed (mph) | Hourly Rainfall (in.) |
|
|---|---|---|---|---|---|---|---|---|---|
| 1 | 06/11 | 00:00 | 72 | 58 | 63 | 29.91 | SSW | 1 | 0.00 |
| 2 | 06/10 | 23:00 | 73 | 57 | 59 | 29.91 | SSW | 2 | 0.00 |
| 3 | 06/10 | 22:00 | 74 | 57 | 56 | 29.91 | SSW | 1 | 0.00 |
| 4 | 06/10 | 21:00 | 76 | 57 | 53 | 29.90 | SSW | 3 | 0.00 |
| 5 | 06/10 | 20:00 | 80 | 57 | 46 | 29.88 | SSW | 3 | 0.00 |
| 6 | 06/10 | 19:00 | 82 | 54 | 39 | 29.85 | S | 6 | 0.00 |
| 7 | 06/10 | 18:00 | 83 | 54 | 38 | 29.84 | WSW | 2 | 0.00 |
| 8 | 06/10 | 17:00 | 84 | 53 | 36 | 29.85 | SSW | 4 | 0.00 |
| 9 | 06/10 | 16:00 | 83 | 54 | 38 | 29.87 | SW | 6 | 0.00 |
| 10 | 06/10 | 15:00 | 82 | 55 | 40 | 29.89 | W | 1 | 0.00 |
| 11 | 06/10 | 14:00 | 80 | 53 | 40 | 29.92 | SSW | 4 | 0.00 |
| 12 | 06/10 | 13:00 | 77 | 51 | 42 | 29.94 | W | 6 | 0.00 |
| 13 | 06/10 | 12:00 | 73 | 54 | 52 | 29.94 | SSE | 5 | 0.00 |
| 14 | 06/10 | 11:00 | 67 | 54 | 64 | 29.98 | W | 6 | 0.00 |
| 15 | 06/10 | 10:00 | 72 | 53 | 53 | 29.96 | SW | 1 | 0.00 |
| 16 | 06/10 | 09:00 | 69 | 51 | 54 | 29.95 | WNW | 3 | 0.00 |
| 17 | 06/10 | 08:00 | 65 | 54 | 70 | 29.95 | SW | 1 | 0.00 |
| 18 | 06/10 | 07:00 | 58 | 53 | 86 | 29.94 | SW | 0 | 0.00 |
| 19 | 06/10 | 06:00 | 56 | 52 | 87 | 29.93 | SW | 0 | 0.00 |
| 20 | 06/10 | 05:00 | 57 | 53 | 88 | 29.91 | SW | 0 | 0.00 |
| 21 | 06/10 | 04:00 | 57 | 53 | 88 | 29.91 | S | 0 | 0.00 |
| 22 | 06/10 | 03:00 | 58 | 53 | 85 | 29.91 | S | 0 | 0.00 |
| 23 | 06/10 | 02:00 | 59 | 54 | 85 | 29.90 | SSW | 0 | 0.00 |
| 24 | 06/10 | 01:00 | 61 | 55 | 82 | 29.89 | SSW | 0 | 0.00 |